sensor_id;sensor_type;location;lat;lon;timestamp;P1;durP1;ratioP1;P2;durP2;ratioP2
41253;SDS011;26987;59.928;30.306;2022-07-23T00:00:45;19.00;;;7.95;;
41253;SDS011;26987;59.928;30.306;2022-07-23T00:03:15;17.67;;;8.60;;
41253;SDS011;26987;59.928;30.306;2022-07-23T00:05:43;11.65;;;7.35;;
41253;SDS011;26987;59.928;30.306;2022-07-23T00:08:11;15.07;;;7.45;;
41253;SDS011;26987;59.928;30.306;2022-07-23T00:10:39;8.27;;;6.85;;
41253;SDS011;26987;59.928;30.306;2022-07-23T00:13:07;15.07;;;8.18;;
41253;SDS011;26987;59.928;30.306;2022-07-23T00:15:35;14.77;;;8.25;;
41253;SDS011;26987;59.928;30.306;2022-07-23T00:18:03;12.88;;;7.25;;
41253;SDS011;26987;59.928;30.306;2022-07-23T00:20:32;12.05;;;7.45;;
41253;SDS011;26987;59.928;30.306;2022-07-23T00:23:00;18.75;;;8.65;;
41253;SDS011;26987;59.928;30.306;2022-07-23T00:25:28;12.57;;;8.48;;
41253;SDS011;26987;59.928;30.306;2022-07-23T00:27:56;11.68;;;8.43;;
41253;SDS011;26987;59.928;30.306;2022-07-23T00:30:25;19.00;;;8.93;;
41253;SDS011;26987;59.928;30.306;2022-07-23T00:32:57;12.85;;;7.93;;
41253;SDS011;26987;59.928;30.306;2022-07-23T00:35:28;13.98;;;8.27;;
41253;SDS011;26987;59.928;30.306;2022-07-23T00:37:59;12.43;;;7.45;;
41253;SDS011;26987;59.928;30.306;2022-07-23T00:40:28;11.93;;;8.00;;
41253;SDS011;26987;59.928;30.306;2022-07-23T00:42:57;17.00;;;7.95;;
41253;SDS011;26987;59.928;30.306;2022-07-23T00:45:26;12.20;;;7.68;;
41253;SDS011;26987;59.928;30.306;2022-07-23T00:47:54;11.38;;;7.72;;
41253;SDS011;26987;59.928;30.306;2022-07-23T00:50:22;13.70;;;8.43;;
41253;SDS011;26987;59.928;30.306;2022-07-23T00:52:51;15.35;;;7.65;;
41253;SDS011;26987;59.928;30.306;2022-07-23T00:55:21;11.95;;;7.82;;
41253;SDS011;26987;59.928;30.306;2022-07-23T00:57:49;15.07;;;8.65;;
41253;SDS011;26987;59.928;30.306;2022-07-23T01:00:18;18.85;;;8.02;;
41253;SDS011;26987;59.928;30.306;2022-07-23T01:02:46;15.43;;;8.48;;
41253;SDS011;26987;59.928;30.306;2022-07-23T01:05:14;16.00;;;8.95;;
41253;SDS011;26987;59.928;30.306;2022-07-23T01:07:43;13.98;;;8.27;;
41253;SDS011;26987;59.928;30.306;2022-07-23T01:10:12;15.13;;;9.57;;
41253;SDS011;26987;59.928;30.306;2022-07-23T01:13:01;15.90;;;9.13;;
41253;SDS011;26987;59.928;30.306;2022-07-23T01:15:31;19.25;;;9.13;;
41253;SDS011;26987;59.928;30.306;2022-07-23T01:17:59;14.07;;;9.98;;
41253;SDS011;26987;59.928;30.306;2022-07-23T01:20:29;15.18;;;8.65;;
41253;SDS011;26987;59.928;30.306;2022-07-23T01:22:59;14.10;;;9.40;;
41253;SDS011;26987;59.928;30.306;2022-07-23T01:25:27;16.58;;;9.38;;
41253;SDS011;26987;59.928;30.306;2022-07-23T01:28:03;14.55;;;8.82;;
41253;SDS011;26987;59.928;30.306;2022-07-23T01:30:31;15.85;;;9.30;;
41253;SDS011;26987;59.928;30.306;2022-07-23T01:33:01;12.13;;;8.02;;
41253;SDS011;26987;59.928;30.306;2022-07-23T01:35:30;14.52;;;8.65;;
41253;SDS011;26987;59.928;30.306;2022-07-23T01:38:04;16.00;;;8.70;;
41253;SDS011;26987;59.928;30.306;2022-07-23T01:40:33;16.67;;;9.35;;
41253;SDS011;26987;59.928;30.306;2022-07-23T01:43:01;14.10;;;9.27;;
41253;SDS011;26987;59.928;30.306;2022-07-23T01:45:31;19.83;;;8.48;;
41253;SDS011;26987;59.928;30.306;2022-07-23T01:47:59;15.70;;;9.82;;
41253;SDS011;26987;59.928;30.306;2022-07-23T01:50:27;12.38;;;8.63;;
41253;SDS011;26987;59.928;30.306;2022-07-23T01:53:22;16.17;;;9.02;;
41253;SDS011;26987;59.928;30.306;2022-07-23T01:55:51;12.48;;;8.40;;
41253;SDS011;26987;59.928;30.306;2022-07-23T01:58:19;14.32;;;9.07;;
41253;SDS011;26987;59.928;30.306;2022-07-23T02:00:47;16.38;;;8.80;;
41253;SDS011;26987;59.928;30.306;2022-07-23T02:03:15;15.70;;;8.20;;
41253;SDS011;26987;59.928;30.306;2022-07-23T02:05:43;16.35;;;9.23;;
41253;SDS011;26987;59.928;30.306;2022-07-23T02:08:11;11.65;;;8.63;;
41253;SDS011;26987;59.928;30.306;2022-07-23T02:10:41;14.43;;;9.18;;
41253;SDS011;26987;59.928;30.306;2022-07-23T02:13:09;12.50;;;8.07;;
41253;SDS011;26987;59.928;30.306;2022-07-23T02:15:37;13.98;;;8.48;;
41253;SDS011;26987;59.928;30.306;2022-07-23T02:18:05;13.45;;;8.73;;
41253;SDS011;26987;59.928;30.306;2022-07-23T02:20:34;16.40;;;8.82;;
41253;SDS011;26987;59.928;30.306;2022-07-23T02:23:04;15.80;;;9.07;;
41253;SDS011;26987;59.928;30.306;2022-07-23T02:25:33;11.90;;;8.45;;
41253;SDS011;26987;59.928;30.306;2022-07-23T02:28:03;16.67;;;9.55;;
41253;SDS011;26987;59.928;30.306;2022-07-23T02:30:31;17.35;;;9.70;;
41253;SDS011;26987;59.928;30.306;2022-07-23T02:33:00;15.07;;;10.02;;
41253;SDS011;26987;59.928;30.306;2022-07-23T02:35:28;17.73;;;10.40;;
41253;SDS011;26987;59.928;30.306;2022-07-23T02:38:00;21.70;;;9.13;;
41253;SDS011;26987;59.928;30.306;2022-07-23T02:40:30;14.65;;;9.02;;
41253;SDS011;26987;59.928;30.306;2022-07-23T02:42:58;21.70;;;9.57;;
41253;SDS011;26987;59.928;30.306;2022-07-23T02:45:29;15.15;;;9.52;;
41253;SDS011;26987;59.928;30.306;2022-07-23T02:47:57;11.30;;;7.72;;
41253;SDS011;26987;59.928;30.306;2022-07-23T02:50:26;21.90;;;9.20;;
41253;SDS011;26987;59.928;30.306;2022-07-23T02:52:57;16.95;;;8.73;;
41253;SDS011;26987;59.928;30.306;2022-07-23T02:55:25;12.50;;;7.72;;
41253;SDS011;26987;59.928;30.306;2022-07-23T02:57:53;11.50;;;8.00;;
41253;SDS011;26987;59.928;30.306;2022-07-23T03:00:22;19.85;;;7.85;;
41253;SDS011;26987;59.928;30.306;2022-07-23T03:02:52;14.68;;;7.53;;
41253;SDS011;26987;59.928;30.306;2022-07-23T03:05:20;12.60;;;7.18;;
41253;SDS011;26987;59.928;30.306;2022-07-23T03:07:48;7.93;;;7.03;;
41253;SDS011;26987;59.928;30.306;2022-07-23T03:10:16;12.90;;;7.22;;
41253;SDS011;26987;59.928;30.306;2022-07-23T03:12:44;12.30;;;7.35;;
41253;SDS011;26987;59.928;30.306;2022-07-23T03:15:13;13.70;;;7.63;;
41253;SDS011;26987;59.928;30.306;2022-07-23T03:17:41;9.73;;;6.82;;
41253;SDS011;26987;59.928;30.306;2022-07-23T03:20:11;10.93;;;8.07;;
41253;SDS011;26987;59.928;30.306;2022-07-23T03:22:39;13.73;;;7.53;;
41253;SDS011;26987;59.928;30.306;2022-07-23T03:25:07;11.18;;;7.63;;
41253;SDS011;26987;59.928;30.306;2022-07-23T03:27:36;14.63;;;7.28;;
41253;SDS011;26987;59.928;30.306;2022-07-23T03:30:05;12.57;;;8.82;;
41253;SDS011;26987;59.928;30.306;2022-07-23T03:32:34;13.30;;;7.88;;
41253;SDS011;26987;59.928;30.306;2022-07-23T03:35:02;21.15;;;8.13;;
41253;SDS011;26987;59.928;30.306;2022-07-23T03:37:32;14.40;;;6.97;;
41253;SDS011;26987;59.928;30.306;2022-07-23T03:40:00;13.60;;;7.15;;
41253;SDS011;26987;59.928;30.306;2022-07-23T03:42:29;9.45;;;6.75;;
41253;SDS011;26987;59.928;30.306;2022-07-23T03:44:57;10.57;;;7.47;;
41253;SDS011;26987;59.928;30.306;2022-07-23T03:47:25;10.27;;;7.78;;
41253;SDS011;26987;59.928;30.306;2022-07-23T03:49:53;8.73;;;6.85;;
41253;SDS011;26987;59.928;30.306;2022-07-23T03:52:21;12.00;;;7.63;;
41253;SDS011;26987;59.928;30.306;2022-07-23T03:54:53;9.95;;;7.65;;
41253;SDS011;26987;59.928;30.306;2022-07-23T03:57:23;8.43;;;6.78;;
41253;SDS011;26987;59.928;30.306;2022-07-23T03:59:51;8.75;;;6.72;;
41253;SDS011;26987;59.928;30.306;2022-07-23T04:02:19;8.77;;;6.63;;
41253;SDS011;26987;59.928;30.306;2022-07-23T04:04:47;12.45;;;7.50;;
41253;SDS011;26987;59.928;30.306;2022-07-23T04:07:15;12.85;;;7.40;;
41253;SDS011;26987;59.928;30.306;2022-07-23T04:09:44;13.07;;;7.00;;
41253;SDS011;26987;59.928;30.306;2022-07-23T04:12:14;14.45;;;7.85;;
41253;SDS011;26987;59.928;30.306;2022-07-23T04:14:42;8.30;;;7.03;;
41253;SDS011;26987;59.928;30.306;2022-07-23T04:17:10;10.88;;;7.13;;
41253;SDS011;26987;59.928;30.306;2022-07-23T04:19:38;9.68;;;6.43;;
41253;SDS011;26987;59.928;30.306;2022-07-23T04:22:08;10.98;;;7.25;;
41253;SDS011;26987;59.928;30.306;2022-07-23T04:24:37;8.10;;;6.55;;
41253;SDS011;26987;59.928;30.306;2022-07-23T04:27:08;9.15;;;6.78;;
41253;SDS011;26987;59.928;30.306;2022-07-23T04:29:38;10.88;;;6.30;;
41253;SDS011;26987;59.928;30.306;2022-07-23T04:32:06;13.65;;;6.85;;
41253;SDS011;26987;59.928;30.306;2022-07-23T04:34:34;9.07;;;6.35;;
41253;SDS011;26987;59.928;30.306;2022-07-23T04:37:02;10.15;;;6.55;;
41253;SDS011;26987;59.928;30.306;2022-07-23T04:39:32;9.80;;;6.25;;
41253;SDS011;26987;59.928;30.306;2022-07-23T04:42:01;7.45;;;5.82;;
41253;SDS011;26987;59.928;30.306;2022-07-23T04:44:31;8.40;;;5.93;;
41253;SDS011;26987;59.928;30.306;2022-07-23T04:47:02;8.73;;;6.30;;
41253;SDS011;26987;59.928;30.306;2022-07-23T04:49:30;10.88;;;6.35;;
41253;SDS011;26987;59.928;30.306;2022-07-23T04:51:59;9.85;;;6.53;;
41253;SDS011;26987;59.928;30.306;2022-07-23T04:54:27;8.27;;;6.32;;
41253;SDS011;26987;59.928;30.306;2022-07-23T04:56:55;8.73;;;5.88;;
41253;SDS011;26987;59.928;30.306;2022-07-23T04:59:23;8.18;;;6.03;;
41253;SDS011;26987;59.928;30.306;2022-07-23T05:02:07;9.82;;;6.03;;
41253;SDS011;26987;59.928;30.306;2022-07-23T05:04:35;9.05;;;6.10;;
41253;SDS011;26987;59.928;30.306;2022-07-23T05:07:04;6.88;;;5.90;;
41253;SDS011;26987;59.928;30.306;2022-07-23T05:09:34;13.20;;;5.50;;
41253;SDS011;26987;59.928;30.306;2022-07-23T05:12:02;9.68;;;6.25;;
41253;SDS011;26987;59.928;30.306;2022-07-23T05:14:32;8.48;;;5.55;;
41253;SDS011;26987;59.928;30.306;2022-07-23T05:17:00;8.32;;;5.88;;
41253;SDS011;26987;59.928;30.306;2022-07-23T05:19:30;7.22;;;5.35;;
41253;SDS011;26987;59.928;30.306;2022-07-23T05:21:58;6.95;;;5.70;;
41253;SDS011;26987;59.928;30.306;2022-07-23T05:24:26;10.43;;;6.03;;
41253;SDS011;26987;59.928;30.306;2022-07-23T05:26:54;15.00;;;6.53;;
41253;SDS011;26987;59.928;30.306;2022-07-23T05:29:22;10.55;;;6.00;;
41253;SDS011;26987;59.928;30.306;2022-07-23T05:31:50;9.60;;;5.97;;
41253;SDS011;26987;59.928;30.306;2022-07-23T05:34:19;9.27;;;5.90;;
41253;SDS011;26987;59.928;30.306;2022-07-23T05:36:49;9.63;;;6.18;;
41253;SDS011;26987;59.928;30.306;2022-07-23T05:39:17;10.52;;;6.60;;
41253;SDS011;26987;59.928;30.306;2022-07-23T05:41:45;10.98;;;6.57;;
41253;SDS011;26987;59.928;30.306;2022-07-23T05:44:13;11.50;;;5.95;;
41253;SDS011;26987;59.928;30.306;2022-07-23T05:46:43;10.10;;;5.88;;
41253;SDS011;26987;59.928;30.306;2022-07-23T05:49:16;9.63;;;6.55;;
41253;SDS011;26987;59.928;30.306;2022-07-23T05:51:58;10.55;;;5.88;;
41253;SDS011;26987;59.928;30.306;2022-07-23T05:54:37;8.70;;;6.38;;
41253;SDS011;26987;59.928;30.306;2022-07-23T05:57:06;11.50;;;6.07;;
41253;SDS011;26987;59.928;30.306;2022-07-23T05:59:34;17.52;;;6.05;;
41253;SDS011;26987;59.928;30.306;2022-07-23T06:02:03;10.15;;;7.00;;
41253;SDS011;26987;59.928;30.306;2022-07-23T06:04:31;11.35;;;6.10;;
41253;SDS011;26987;59.928;30.306;2022-07-23T06:07:23;9.23;;;6.30;;
41253;SDS011;26987;59.928;30.306;2022-07-23T06:09:52;10.45;;;5.88;;
41253;SDS011;26987;59.928;30.306;2022-07-23T06:12:20;11.75;;;5.78;;
41253;SDS011;26987;59.928;30.306;2022-07-23T06:14:48;8.38;;;5.68;;
41253;SDS011;26987;59.928;30.306;2022-07-23T06:17:18;14.07;;;6.43;;
41253;SDS011;26987;59.928;30.306;2022-07-23T06:19:46;15.40;;;6.30;;
41253;SDS011;26987;59.928;30.306;2022-07-23T06:22:15;12.52;;;6.63;;
41253;SDS011;26987;59.928;30.306;2022-07-23T06:24:45;11.45;;;6.22;;
41253;SDS011;26987;59.928;30.306;2022-07-23T06:27:13;8.40;;;5.57;;
41253;SDS011;26987;59.928;30.306;2022-07-23T06:29:41;12.80;;;6.15;;
41253;SDS011;26987;59.928;30.306;2022-07-23T06:32:09;11.15;;;5.93;;
41253;SDS011;26987;59.928;30.306;2022-07-23T06:34:37;12.05;;;6.05;;
41253;SDS011;26987;59.928;30.306;2022-07-23T06:37:05;11.75;;;5.75;;
41253;SDS011;26987;59.928;30.306;2022-07-23T06:39:33;8.63;;;5.20;;
41253;SDS011;26987;59.928;30.306;2022-07-23T06:42:03;10.55;;;6.05;;
41253;SDS011;26987;59.928;30.306;2022-07-23T06:44:44;9.82;;;5.30;;
41253;SDS011;26987;59.928;30.306;2022-07-23T06:47:15;10.52;;;5.75;;
41253;SDS011;26987;59.928;30.306;2022-07-23T06:49:43;15.32;;;6.40;;
41253;SDS011;26987;59.928;30.306;2022-07-23T06:52:14;12.02;;;5.50;;
41253;SDS011;26987;59.928;30.306;2022-07-23T06:54:42;13.30;;;5.40;;
41253;SDS011;26987;59.928;30.306;2022-07-23T06:57:11;12.00;;;5.18;;
41253;SDS011;26987;59.928;30.306;2022-07-23T06:59:39;8.80;;;5.05;;
41253;SDS011;26987;59.928;30.306;2022-07-23T07:02:10;11.18;;;6.15;;
41253;SDS011;26987;59.928;30.306;2022-07-23T07:04:38;12.20;;;4.57;;
41253;SDS011;26987;59.928;30.306;2022-07-23T07:07:06;20.17;;;5.30;;
41253;SDS011;26987;59.928;30.306;2022-07-23T07:09:34;15.25;;;5.80;;
41253;SDS011;26987;59.928;30.306;2022-07-23T07:12:02;9.40;;;5.50;;
41253;SDS011;26987;59.928;30.306;2022-07-23T07:14:32;6.43;;;4.50;;
41253;SDS011;26987;59.928;30.306;2022-07-23T07:17:00;12.38;;;5.40;;
41253;SDS011;26987;59.928;30.306;2022-07-23T07:19:28;9.95;;;4.70;;
41253;SDS011;26987;59.928;30.306;2022-07-23T07:21:56;9.43;;;6.10;;
41253;SDS011;26987;59.928;30.306;2022-07-23T07:24:24;15.82;;;5.15;;
41253;SDS011;26987;59.928;30.306;2022-07-23T07:26:52;7.82;;;4.85;;
41253;SDS011;26987;59.928;30.306;2022-07-23T07:29:20;7.60;;;4.68;;
41253;SDS011;26987;59.928;30.306;2022-07-23T07:31:49;7.80;;;4.57;;
41253;SDS011;26987;59.928;30.306;2022-07-23T07:34:17;11.55;;;5.30;;
41253;SDS011;26987;59.928;30.306;2022-07-23T07:36:45;11.60;;;5.25;;
41253;SDS011;26987;59.928;30.306;2022-07-23T07:39:13;13.15;;;6.28;;
41253;SDS011;26987;59.928;30.306;2022-07-23T07:41:41;15.73;;;5.05;;
41253;SDS011;26987;59.928;30.306;2022-07-23T07:44:09;13.57;;;4.63;;
41253;SDS011;26987;59.928;30.306;2022-07-23T07:46:37;10.35;;;5.05;;
41253;SDS011;26987;59.928;30.306;2022-07-23T07:49:06;8.63;;;4.40;;
41253;SDS011;26987;59.928;30.306;2022-07-23T07:51:35;13.82;;;8.88;;
41253;SDS011;26987;59.928;30.306;2022-07-23T07:54:03;6.43;;;4.47;;
41253;SDS011;26987;59.928;30.306;2022-07-23T07:56:31;10.02;;;4.88;;
41253;SDS011;26987;59.928;30.306;2022-07-23T07:58:59;7.43;;;4.70;;
41253;SDS011;26987;59.928;30.306;2022-07-23T08:01:27;12.75;;;5.18;;
41253;SDS011;26987;59.928;30.306;2022-07-23T08:03:55;9.52;;;4.90;;
41253;SDS011;26987;59.928;30.306;2022-07-23T08:06:25;8.93;;;5.30;;
41253;SDS011;26987;59.928;30.306;2022-07-23T08:08:53;13.85;;;5.18;;
41253;SDS011;26987;59.928;30.306;2022-07-23T08:11:21;12.15;;;5.10;;
41253;SDS011;26987;59.928;30.306;2022-07-23T08:13:49;11.38;;;5.40;;
41253;SDS011;26987;59.928;30.306;2022-07-23T08:16:17;9.38;;;4.63;;
41253;SDS011;26987;59.928;30.306;2022-07-23T08:18:45;11.30;;;5.35;;
41253;SDS011;26987;59.928;30.306;2022-07-23T08:21:13;14.82;;;6.90;;
41253;SDS011;26987;59.928;30.306;2022-07-23T08:23:42;11.57;;;5.40;;
41253;SDS011;26987;59.928;30.306;2022-07-23T08:26:11;9.75;;;4.88;;
41253;SDS011;26987;59.928;30.306;2022-07-23T08:28:39;10.10;;;5.47;;
41253;SDS011;26987;59.928;30.306;2022-07-23T08:31:07;10.38;;;5.15;;
41253;SDS011;26987;59.928;30.306;2022-07-23T08:33:37;10.40;;;5.57;;
41253;SDS011;26987;59.928;30.306;2022-07-23T08:36:05;10.38;;;5.95;;
41253;SDS011;26987;59.928;30.306;2022-07-23T08:38:34;15.40;;;5.85;;
41253;SDS011;26987;59.928;30.306;2022-07-23T08:41:04;10.80;;;5.40;;
41253;SDS011;26987;59.928;30.306;2022-07-23T08:43:35;15.65;;;5.88;;
41253;SDS011;26987;59.928;30.306;2022-07-23T08:46:03;11.75;;;5.10;;
41253;SDS011;26987;59.928;30.306;2022-07-23T08:48:32;9.52;;;5.30;;
41253;SDS011;26987;59.928;30.306;2022-07-23T08:51:02;10.30;;;4.63;;
41253;SDS011;26987;59.928;30.306;2022-07-23T08:53:32;15.43;;;5.55;;
41253;SDS011;26987;59.928;30.306;2022-07-23T08:56:02;14.50;;;5.95;;
41253;SDS011;26987;59.928;30.306;2022-07-23T08:58:32;13.27;;;5.60;;
41253;SDS011;26987;59.928;30.306;2022-07-23T09:01:01;11.40;;;5.53;;
41253;SDS011;26987;59.928;30.306;2022-07-23T09:03:30;7.97;;;5.03;;
41253;SDS011;26987;59.928;30.306;2022-07-23T09:06:00;9.73;;;5.70;;
41253;SDS011;26987;59.928;30.306;2022-07-23T09:08:34;7.20;;;4.68;;
41253;SDS011;26987;59.928;30.306;2022-07-23T09:11:05;14.15;;;5.72;;
41253;SDS011;26987;59.928;30.306;2022-07-23T09:13:35;10.07;;;5.30;;
41253;SDS011;26987;59.928;30.306;2022-07-23T09:16:06;7.93;;;4.35;;
41253;SDS011;26987;59.928;30.306;2022-07-23T09:18:40;11.98;;;4.30;;
41253;SDS011;26987;59.928;30.306;2022-07-23T09:21:12;6.30;;;4.25;;
41253;SDS011;26987;59.928;30.306;2022-07-23T09:23:48;13.23;;;5.50;;
41253;SDS011;26987;59.928;30.306;2022-07-23T09:26:32;14.38;;;4.72;;
41253;SDS011;26987;59.928;30.306;2022-07-23T09:29:05;9.52;;;5.22;;
41253;SDS011;26987;59.928;30.306;2022-07-23T09:31:48;10.02;;;4.70;;
41253;SDS011;26987;59.928;30.306;2022-07-23T09:34:20;20.45;;;4.72;;
41253;SDS011;26987;59.928;30.306;2022-07-23T09:36:49;8.02;;;4.10;;
41253;SDS011;26987;59.928;30.306;2022-07-23T09:39:22;11.98;;;4.53;;
41253;SDS011;26987;59.928;30.306;2022-07-23T09:41:54;11.00;;;4.90;;
41253;SDS011;26987;59.928;30.306;2022-07-23T09:44:23;8.75;;;4.20;;
41253;SDS011;26987;59.928;30.306;2022-07-23T09:46:52;6.72;;;4.15;;
41253;SDS011;26987;59.928;30.306;2022-07-23T09:49:26;6.40;;;3.92;;
41253;SDS011;26987;59.928;30.306;2022-07-23T09:51:55;8.07;;;4.72;;
41253;SDS011;26987;59.928;30.306;2022-07-23T09:54:26;10.73;;;3.85;;
41253;SDS011;26987;59.928;30.306;2022-07-23T09:57:01;8.13;;;4.32;;
41253;SDS011;26987;59.928;30.306;2022-07-23T09:59:33;10.77;;;4.40;;
41253;SDS011;26987;59.928;30.306;2022-07-23T10:02:02;9.45;;;4.35;;
41253;SDS011;26987;59.928;30.306;2022-07-23T10:04:39;14.15;;;6.20;;
41253;SDS011;26987;59.928;30.306;2022-07-23T10:07:25;10.32;;;4.40;;
41253;SDS011;26987;59.928;30.306;2022-07-23T10:10:14;14.40;;;5.00;;
41253;SDS011;26987;59.928;30.306;2022-07-23T10:13:16;9.88;;;4.07;;
41253;SDS011;26987;59.928;30.306;2022-07-23T10:16:10;11.25;;;4.35;;
41253;SDS011;26987;59.928;30.306;2022-07-23T10:18:39;12.82;;;5.88;;
41253;SDS011;26987;59.928;30.306;2022-07-23T10:21:08;7.78;;;4.50;;
41253;SDS011;26987;59.928;30.306;2022-07-23T10:23:37;8.48;;;4.05;;
41253;SDS011;26987;59.928;30.306;2022-07-23T10:26:10;8.20;;;4.07;;
41253;SDS011;26987;59.928;30.306;2022-07-23T10:31:40;18.73;;;4.43;;
41253;SDS011;26987;59.928;30.306;2022-07-23T10:34:16;9.00;;;3.63;;
41253;SDS011;26987;59.928;30.306;2022-07-23T10:36:49;9.07;;;4.20;;
41253;SDS011;26987;59.928;30.306;2022-07-23T10:39:24;5.05;;;3.25;;
41253;SDS011;26987;59.928;30.306;2022-07-23T10:42:09;13.63;;;4.57;;
41253;SDS011;26987;59.928;30.306;2022-07-23T10:45:02;10.02;;;3.78;;
41253;SDS011;26987;59.928;30.306;2022-07-23T10:47:50;7.13;;;4.18;;
41253;SDS011;26987;59.928;30.306;2022-07-23T10:50:22;8.98;;;4.15;;
41253;SDS011;26987;59.928;30.306;2022-07-23T10:53:10;7.20;;;3.92;;
41253;SDS011;26987;59.928;30.306;2022-07-23T10:55:42;5.90;;;4.00;;
41253;SDS011;26987;59.928;30.306;2022-07-23T10:58:16;7.13;;;4.07;;
41253;SDS011;26987;59.928;30.306;2022-07-23T11:00:47;6.95;;;4.10;;
41253;SDS011;26987;59.928;30.306;2022-07-23T11:09:27;7.22;;;4.32;;
41253;SDS011;26987;59.928;30.306;2022-07-23T11:15:02;10.88;;;4.70;;
41253;SDS011;26987;59.928;30.306;2022-07-23T11:17:34;11.73;;;5.47;;
41253;SDS011;26987;59.928;30.306;2022-07-23T11:20:16;16.15;;;5.63;;
41253;SDS011;26987;59.928;30.306;2022-07-23T11:22:47;9.77;;;5.78;;
41253;SDS011;26987;59.928;30.306;2022-07-23T11:28:09;20.88;;;5.22;;
41253;SDS011;26987;59.928;30.306;2022-07-23T11:33:20;9.63;;;4.80;;
41253;SDS011;26987;59.928;30.306;2022-07-23T11:35:51;10.57;;;4.70;;
41253;SDS011;26987;59.928;30.306;2022-07-23T11:38:30;17.30;;;4.95;;
41253;SDS011;26987;59.928;30.306;2022-07-23T11:40:59;18.60;;;5.13;;
41253;SDS011;26987;59.928;30.306;2022-07-23T11:43:27;18.17;;;5.88;;
41253;SDS011;26987;59.928;30.306;2022-07-23T11:45:57;13.65;;;4.93;;
41253;SDS011;26987;59.928;30.306;2022-07-23T11:48:28;10.82;;;5.07;;
41253;SDS011;26987;59.928;30.306;2022-07-23T11:50:57;13.55;;;5.00;;
41253;SDS011;26987;59.928;30.306;2022-07-23T11:53:26;12.57;;;5.20;;
41253;SDS011;26987;59.928;30.306;2022-07-23T11:56:02;10.70;;;5.32;;
41253;SDS011;26987;59.928;30.306;2022-07-23T11:58:31;7.85;;;4.80;;
41253;SDS011;26987;59.928;30.306;2022-07-23T12:00:59;11.73;;;4.50;;
41253;SDS011;26987;59.928;30.306;2022-07-23T12:03:29;10.48;;;5.70;;
41253;SDS011;26987;59.928;30.306;2022-07-23T12:05:57;9.13;;;5.45;;
41253;SDS011;26987;59.928;30.306;2022-07-23T12:08:27;13.60;;;7.07;;
41253;SDS011;26987;59.928;30.306;2022-07-23T12:10:56;12.43;;;7.15;;
41253;SDS011;26987;59.928;30.306;2022-07-23T12:13:24;12.85;;;8.25;;
41253;SDS011;26987;59.928;30.306;2022-07-23T12:15:53;18.63;;;7.35;;
41253;SDS011;26987;59.928;30.306;2022-07-23T12:18:27;19.40;;;7.22;;
41253;SDS011;26987;59.928;30.306;2022-07-23T12:20:57;18.13;;;7.43;;
41253;SDS011;26987;59.928;30.306;2022-07-23T12:23:30;12.98;;;6.95;;
41253;SDS011;26987;59.928;30.306;2022-07-23T12:26:00;12.98;;;7.05;;
41253;SDS011;26987;59.928;30.306;2022-07-23T12:28:30;16.25;;;6.78;;
41253;SDS011;26987;59.928;30.306;2022-07-23T12:30:59;17.88;;;8.35;;
41253;SDS011;26987;59.928;30.306;2022-07-23T12:33:30;13.15;;;7.13;;
41253;SDS011;26987;59.928;30.306;2022-07-23T12:36:00;16.02;;;6.78;;
41253;SDS011;26987;59.928;30.306;2022-07-23T12:38:36;14.88;;;6.63;;
41253;SDS011;26987;59.928;30.306;2022-07-23T12:41:05;13.90;;;6.25;;
41253;SDS011;26987;59.928;30.306;2022-07-23T12:43:34;14.35;;;6.13;;
41253;SDS011;26987;59.928;30.306;2022-07-23T12:46:05;11.65;;;4.75;;
41253;SDS011;26987;59.928;30.306;2022-07-23T12:48:36;11.68;;;5.38;;
41253;SDS011;26987;59.928;30.306;2022-07-23T12:51:05;11.45;;;4.63;;
41253;SDS011;26987;59.928;30.306;2022-07-23T12:53:36;15.13;;;5.80;;
41253;SDS011;26987;59.928;30.306;2022-07-23T12:56:07;9.60;;;4.72;;
41253;SDS011;26987;59.928;30.306;2022-07-23T12:58:41;14.27;;;4.60;;
41253;SDS011;26987;59.928;30.306;2022-07-23T13:01:21;14.50;;;5.45;;
41253;SDS011;26987;59.928;30.306;2022-07-23T13:03:56;9.20;;;5.22;;
41253;SDS011;26987;59.928;30.306;2022-07-23T13:06:26;8.95;;;4.88;;
41253;SDS011;26987;59.928;30.306;2022-07-23T13:08:55;8.75;;;4.40;;
41253;SDS011;26987;59.928;30.306;2022-07-23T13:11:23;11.82;;;4.55;;
41253;SDS011;26987;59.928;30.306;2022-07-23T13:13:53;9.10;;;5.40;;
41253;SDS011;26987;59.928;30.306;2022-07-23T13:16:21;16.48;;;5.05;;
41253;SDS011;26987;59.928;30.306;2022-07-23T13:18:49;13.25;;;6.53;;
41253;SDS011;26987;59.928;30.306;2022-07-23T13:21:19;11.95;;;6.93;;
41253;SDS011;26987;59.928;30.306;2022-07-23T13:23:46;19.05;;;8.32;;
41253;SDS011;26987;59.928;30.306;2022-07-23T13:26:15;16.80;;;9.18;;
41253;SDS011;26987;59.928;30.306;2022-07-23T13:28:43;18.30;;;9.60;;
41253;SDS011;26987;59.928;30.306;2022-07-23T13:31:11;17.52;;;10.48;;
41253;SDS011;26987;59.928;30.306;2022-07-23T13:33:40;30.20;;;10.02;;
41253;SDS011;26987;59.928;30.306;2022-07-23T13:36:08;21.25;;;10.48;;
41253;SDS011;26987;59.928;30.306;2022-07-23T13:38:37;17.67;;;10.02;;
41253;SDS011;26987;59.928;30.306;2022-07-23T13:41:06;20.83;;;10.95;;
41253;SDS011;26987;59.928;30.306;2022-07-23T13:43:34;24.25;;;10.85;;
41253;SDS011;26987;59.928;30.306;2022-07-23T13:46:02;17.80;;;10.32;;
41253;SDS011;26987;59.928;30.306;2022-07-23T13:48:30;17.80;;;9.70;;
41253;SDS011;26987;59.928;30.306;2022-07-23T13:50:58;19.33;;;9.63;;
41253;SDS011;26987;59.928;30.306;2022-07-23T13:53:26;15.40;;;10.80;;
41253;SDS011;26987;59.928;30.306;2022-07-23T13:55:55;15.27;;;10.63;;
41253;SDS011;26987;59.928;30.306;2022-07-23T13:58:24;16.23;;;10.35;;
41253;SDS011;26987;59.928;30.306;2022-07-23T14:00:53;13.43;;;10.13;;
41253;SDS011;26987;59.928;30.306;2022-07-23T14:03:21;12.07;;;9.60;;
41253;SDS011;26987;59.928;30.306;2022-07-23T14:05:50;14.02;;;9.23;;
41253;SDS011;26987;59.928;30.306;2022-07-23T14:08:18;11.35;;;9.05;;
41253;SDS011;26987;59.928;30.306;2022-07-23T14:10:46;19.95;;;9.38;;
41253;SDS011;26987;59.928;30.306;2022-07-23T14:13:16;23.50;;;10.25;;
41253;SDS011;26987;59.928;30.306;2022-07-23T14:15:44;17.77;;;9.13;;
41253;SDS011;26987;59.928;30.306;2022-07-23T14:18:12;17.67;;;8.00;;
41253;SDS011;26987;59.928;30.306;2022-07-23T14:20:40;15.70;;;8.70;;
41253;SDS011;26987;59.928;30.306;2022-07-23T14:23:08;13.20;;;8.20;;
41253;SDS011;26987;59.928;30.306;2022-07-23T14:25:36;16.95;;;8.18;;
41253;SDS011;26987;59.928;30.306;2022-07-23T14:28:04;12.52;;;8.15;;
41253;SDS011;26987;59.928;30.306;2022-07-23T14:30:33;18.60;;;7.68;;
41253;SDS011;26987;59.928;30.306;2022-07-23T14:33:02;12.38;;;7.57;;
41253;SDS011;26987;59.928;30.306;2022-07-23T14:35:30;17.88;;;8.48;;
41253;SDS011;26987;59.928;30.306;2022-07-23T14:37:58;14.93;;;7.65;;
41253;SDS011;26987;59.928;30.306;2022-07-23T14:40:26;17.08;;;7.63;;
41253;SDS011;26987;59.928;30.306;2022-07-23T14:42:54;16.17;;;7.85;;
41253;SDS011;26987;59.928;30.306;2022-07-23T14:45:22;12.02;;;6.97;;
41253;SDS011;26987;59.928;30.306;2022-07-23T14:47:51;14.98;;;7.85;;
41253;SDS011;26987;59.928;30.306;2022-07-23T14:50:19;19.23;;;8.95;;
41253;SDS011;26987;59.928;30.306;2022-07-23T14:52:47;19.40;;;8.60;;
41253;SDS011;26987;59.928;30.306;2022-07-23T14:55:15;20.63;;;9.13;;
41253;SDS011;26987;59.928;30.306;2022-07-23T14:57:44;13.65;;;8.02;;